createdAt,value
2018-08-24T00:01:25.195Z,45.15
2018-08-24T00:03:51.137Z,45.17
2018-08-24T00:06:17.061Z,44.24
2018-08-24T00:08:43.027Z,44.37
2018-08-24T00:11:08.989Z,45.34
2018-08-24T00:13:34.966Z,46.16
2018-08-24T00:16:00.923Z,45.68
2018-08-24T00:18:26.879Z,45.04
2018-08-24T00:20:52.812Z,43.72
2018-08-24T00:23:18.776Z,44.32
2018-08-24T00:25:44.706Z,44.17
2018-08-24T00:28:10.647Z,44.50
2018-08-24T00:30:36.601Z,43.76
2018-08-24T00:33:02.537Z,43.08
2018-08-24T00:35:28.473Z,43.01
2018-08-24T00:37:54.410Z,43.54
2018-08-24T00:40:20.340Z,45.40
2018-08-24T00:42:46.336Z,46.11
2018-08-24T00:45:12.240Z,44.93
2018-08-24T00:47:38.210Z,44.25
2018-08-24T00:50:04.172Z,43.77
2018-08-24T00:52:30.147Z,44.44
2018-08-24T00:54:56.095Z,44.42
2018-08-24T00:57:22.213Z,44.05
2018-08-24T00:59:48.160Z,44.71
2018-08-24T01:02:14.136Z,44.21
2018-08-24T01:04:40.092Z,44.30
2018-08-24T01:07:06.287Z,44.53
2018-08-24T01:09:32.238Z,44.64
2018-08-24T01:11:58.245Z,45.33
2018-08-24T01:14:24.180Z,45.80
2018-08-24T01:16:50.144Z,45.64
2018-08-24T01:19:16.084Z,46.07
2018-08-24T01:21:42.037Z,46.31
2018-08-24T01:24:07.988Z,46.79
2018-08-24T01:26:33.945Z,46.90
2018-08-24T01:28:59.890Z,46.51
2018-08-24T01:31:25.860Z,45.90
2018-08-24T01:33:51.837Z,45.83
2018-08-24T01:36:17.787Z,46.27
2018-08-24T01:38:43.752Z,46.06
2018-08-24T01:41:09.717Z,46.27
2018-08-24T01:43:35.658Z,46.62
2018-08-24T01:46:01.601Z,45.41
2018-08-24T01:48:27.541Z,45.31
2018-08-24T01:50:53.518Z,46.12
2018-08-24T01:53:19.483Z,46.09
2018-08-24T01:55:45.437Z,46.46
2018-08-24T01:58:11.432Z,45.46
2018-08-24T02:00:37.389Z,46.12
2018-08-24T02:03:03.339Z,45.73
2018-08-24T02:05:29.287Z,46.26
2018-08-24T02:07:55.228Z,45.60
2018-08-24T02:10:21.180Z,45.52
2018-08-24T02:12:47.140Z,45.52
2018-08-24T02:15:13.092Z,46.34
2018-08-24T02:17:39.056Z,45.31
2018-08-24T02:20:05.021Z,45.33
2018-08-24T02:22:30.980Z,45.55
2018-08-24T02:24:56.928Z,45.31
2018-08-24T02:27:22.880Z,45.30
2018-08-24T02:29:48.831Z,44.47
2018-08-24T02:32:14.782Z,45.68
2018-08-24T02:34:40.739Z,46.19
2018-08-24T02:37:06.681Z,46.04
2018-08-24T02:39:32.665Z,45.78
2018-08-24T02:41:58.642Z,45.29
2018-08-24T02:44:24.604Z,45.81
2018-08-24T02:46:50.825Z,46.95
2018-08-24T02:49:16.809Z,46.73
2018-08-24T02:51:42.741Z,46.26
2018-08-24T02:54:08.718Z,47.42
2018-08-24T02:56:34.673Z,46.56
2018-08-24T02:59:00.644Z,46.23
2018-08-24T03:01:26.600Z,46.81
2018-08-24T03:03:52.569Z,45.96
2018-08-24T03:06:18.504Z,46.01
2018-08-24T03:08:44.487Z,45.21
2018-08-24T03:11:10.428Z,45.55
2018-08-24T03:13:36.505Z,45.99
2018-08-24T03:16:02.492Z,45.97
2018-08-24T03:18:28.465Z,45.67
2018-08-24T03:20:54.415Z,46.21
2018-08-24T03:23:20.385Z,47.08
2018-08-24T03:25:46.316Z,47.77
2018-08-24T03:28:12.282Z,46.99
2018-08-24T03:30:38.264Z,47.34
2018-08-24T03:33:04.236Z,47.15
2018-08-24T03:35:30.192Z,47.83
2018-08-24T03:37:56.165Z,47.87
2018-08-24T03:40:22.127Z,47.62
2018-08-24T03:42:48.107Z,47.46
2018-08-24T03:45:14.070Z,47.95
2018-08-24T03:47:40.016Z,48.39
2018-08-24T03:50:05.983Z,48.38
2018-08-24T03:52:31.935Z,49.12
2018-08-24T03:54:58.003Z,49.18
2018-08-24T03:57:23.964Z,47.71
2018-08-24T03:59:50.960Z,47.67
2018-08-24T04:02:16.912Z,47.50
2018-08-24T04:04:42.886Z,47.70
2018-08-24T04:07:08.847Z,47.60
2018-08-24T04:09:34.792Z,47.98
2018-08-24T04:12:00.756Z,47.96
2018-08-24T04:14:26.742Z,47.66
2018-08-24T04:16:52.778Z,47.07
2018-08-24T04:19:18.795Z,47.51
2018-08-24T04:21:44.935Z,48.10
2018-08-24T04:24:10.889Z,48.41
2018-08-24T04:26:36.836Z,48.65
2018-08-24T04:29:02.783Z,48.35
2018-08-24T04:31:28.754Z,48.77
2018-08-24T04:33:54.710Z,49.21
2018-08-24T04:36:20.667Z,48.30
2018-08-24T04:38:46.610Z,47.98
2018-08-24T04:41:12.549Z,46.83
2018-08-24T04:43:38.541Z,47.50
2018-08-24T04:46:04.498Z,47.19
2018-08-24T04:48:30.469Z,45.86
2018-08-24T04:50:56.431Z,47.11
2018-08-24T04:53:22.361Z,46.73
2018-08-24T04:55:48.300Z,46.82
2018-08-24T04:58:15.165Z,46.30
2018-08-24T05:00:41.100Z,46.86
2018-08-24T05:03:08.082Z,45.35
2018-08-24T05:05:34.064Z,46.48
2018-08-24T05:08:00.012Z,46.88
2018-08-24T05:10:25.969Z,46.38
2018-08-24T05:12:51.944Z,46.67
2018-08-24T05:15:17.900Z,47.68
2018-08-24T05:17:43.857Z,45.12
2018-08-24T05:20:09.794Z,45.69
2018-08-24T05:22:35.755Z,46.12
2018-08-24T05:25:01.715Z,46.28
2018-08-24T05:27:27.677Z,45.47
2018-08-24T05:29:53.627Z,45.89
2018-08-24T05:32:19.610Z,45.92
2018-08-24T05:34:45.580Z,44.61
2018-08-24T05:37:11.545Z,44.23
2018-08-24T05:39:37.474Z,43.51
2018-08-24T05:42:03.415Z,43.29
2018-08-24T05:44:29.396Z,41.95
2018-08-24T05:46:55.349Z,41.96
2018-08-24T05:49:21.292Z,41.29
2018-08-24T05:51:47.254Z,41.27
2018-08-24T05:54:13.233Z,40.81
2018-08-24T05:56:39.203Z,41.35
2018-08-24T05:59:05.137Z,40.75
2018-08-24T06:01:31.061Z,41.17
2018-08-24T06:03:57.024Z,40.94
2018-08-24T06:06:22.974Z,40.99
2018-08-24T06:08:48.907Z,41.09
2018-08-24T06:11:14.871Z,41.00
2018-08-24T06:13:40.868Z,40.88
2018-08-24T06:16:06.829Z,40.67
2018-08-24T06:18:32.806Z,41.48
2018-08-24T06:20:58.780Z,41.62
2018-08-24T06:23:24.743Z,42.31
2018-08-24T06:25:50.708Z,42.03
2018-08-24T06:28:16.656Z,43.07
2018-08-24T06:30:42.605Z,42.05
2018-08-24T06:33:08.535Z,41.68
2018-08-24T06:35:34.518Z,41.63
2018-08-24T06:38:00.454Z,42.25
2018-08-24T06:40:26.398Z,42.19
2018-08-24T06:42:52.385Z,42.17
2018-08-24T06:45:18.531Z,41.85
2018-08-24T06:47:44.589Z,42.66
2018-08-24T06:50:10.505Z,42.59
2018-08-24T06:52:36.452Z,41.74
2018-08-24T06:55:02.432Z,41.53
2018-08-24T06:57:28.380Z,40.88
2018-08-24T06:59:54.351Z,40.00
2018-08-24T07:02:20.314Z,39.64
2018-08-24T07:04:46.253Z,39.34
2018-08-24T07:07:12.220Z,40.27
2018-08-24T07:09:38.216Z,39.44
2018-08-24T07:12:04.184Z,40.09
2018-08-24T07:14:30.170Z,40.07
2018-08-24T07:16:56.153Z,40.66
2018-08-24T07:19:22.109Z,39.22
2018-08-24T07:21:48.054Z,39.80
2018-08-24T07:24:13.988Z,39.61
2018-08-24T07:26:39.930Z,40.97
2018-08-24T07:29:05.942Z,40.54
2018-08-24T07:31:31.888Z,41.24
2018-08-24T07:33:57.867Z,41.66
2018-08-24T07:36:23.811Z,41.64
2018-08-24T07:38:49.822Z,41.62
2018-08-24T07:41:15.794Z,40.43
2018-08-24T07:43:41.739Z,41.32
2018-08-24T07:46:08.374Z,41.10
2018-08-24T07:48:34.322Z,39.84
2018-08-24T07:51:00.295Z,39.78
2018-08-24T07:53:26.304Z,41.49
2018-08-24T07:55:52.261Z,41.14
2018-08-24T07:58:18.213Z,40.53
2018-08-24T08:00:44.180Z,40.00
2018-08-24T08:03:11.194Z,38.73
2018-08-24T08:05:37.146Z,38.00
2018-08-24T08:08:03.092Z,38.01
2018-08-24T08:10:29.065Z,38.63
2018-08-24T08:12:55.023Z,38.06
2018-08-24T08:15:21.000Z,36.70
2018-08-24T08:17:46.952Z,37.99
2018-08-24T08:20:12.916Z,38.48
2018-08-24T08:22:38.864Z,38.50
2018-08-24T08:25:04.823Z,37.83
2018-08-24T08:27:30.772Z,36.87
2018-08-24T08:29:56.711Z,37.25
2018-08-24T08:32:22.667Z,35.28
2018-08-24T08:34:48.631Z,36.52
2018-08-24T08:37:14.597Z,36.07
2018-08-24T08:39:40.559Z,36.79
2018-08-24T08:42:06.534Z,37.14
2018-08-24T08:44:32.520Z,37.98
2018-08-24T08:46:58.478Z,38.01
2018-08-24T08:49:24.440Z,38.38
2018-08-24T08:51:50.407Z,38.97
2018-08-24T08:54:16.373Z,38.76
2018-08-24T08:56:42.333Z,38.98
2018-08-24T08:59:08.300Z,38.42
2018-08-24T09:01:34.262Z,38.31
2018-08-24T09:04:00.289Z,38.42
2018-08-24T09:06:26.267Z,38.52
2018-08-24T09:08:52.232Z,38.68
2018-08-24T09:11:18.189Z,39.59
2018-08-24T09:13:44.160Z,39.11
2018-08-24T09:16:10.104Z,39.16
2018-08-24T09:18:36.113Z,38.89
2018-08-24T09:21:01.978Z,39.46
2018-08-24T09:23:27.915Z,39.26
2018-08-24T09:25:53.861Z,38.94
2018-08-24T09:28:19.803Z,39.85
2018-08-24T09:30:45.761Z,40.48
2018-08-24T09:33:11.720Z,39.44
2018-08-24T09:35:37.695Z,39.00
2018-08-24T09:38:03.707Z,39.51
2018-08-24T09:40:29.609Z,38.50
2018-08-24T09:42:55.610Z,38.76
2018-08-24T09:45:21.519Z,39.15
2018-08-24T09:47:47.453Z,39.64
2018-08-24T09:50:13.416Z,39.18
2018-08-24T09:52:39.373Z,39.40
2018-08-24T09:55:05.326Z,39.08
2018-08-24T09:57:31.264Z,39.01
2018-08-24T09:59:57.208Z,38.71
2018-08-24T10:02:23.172Z,38.77
2018-08-24T10:04:49.242Z,38.92
2018-08-24T10:07:15.204Z,39.68
2018-08-24T10:09:41.156Z,39.48
2018-08-24T10:12:07.113Z,39.78
2018-08-24T10:14:33.048Z,39.54
2018-08-24T10:16:59.002Z,38.99
2018-08-24T10:19:24.981Z,38.46
2018-08-24T10:21:50.938Z,39.49
2018-08-24T10:24:16.893Z,39.79
2018-08-24T10:26:42.833Z,39.27
2018-08-24T10:29:08.805Z,39.28
2018-08-24T10:31:34.769Z,38.81
2018-08-24T10:34:00.748Z,38.51
2018-08-24T10:36:26.677Z,39.21
2018-08-24T10:38:52.673Z,38.93
2018-08-24T10:41:18.625Z,39.26
2018-08-24T10:43:44.587Z,39.31
2018-08-24T10:46:10.552Z,38.41
2018-08-24T10:48:36.536Z,39.24
2018-08-24T10:51:02.525Z,38.38
2018-08-24T10:53:28.525Z,38.20
2018-08-24T10:55:54.526Z,38.57
2018-08-24T10:58:20.469Z,38.75
2018-08-24T11:00:46.404Z,38.54
2018-08-24T11:03:12.386Z,38.84
2018-08-24T11:05:38.349Z,39.31
2018-08-24T11:08:04.311Z,39.47
2018-08-24T11:10:30.298Z,38.29
2018-08-24T11:12:56.248Z,38.57
2018-08-24T11:15:22.220Z,38.75
2018-08-24T11:17:48.205Z,38.18
2018-08-24T11:20:14.153Z,38.27
2018-08-24T11:22:40.101Z,38.46
2018-08-24T11:25:06.060Z,38.41
2018-08-24T11:27:32.031Z,37.57
2018-08-24T11:29:58.000Z,37.52
2018-08-24T11:32:23.995Z,37.56
2018-08-24T11:34:49.955Z,37.49
2018-08-24T11:37:15.900Z,36.92
2018-08-24T11:39:41.887Z,36.62
2018-08-24T11:42:07.875Z,37.27
2018-08-24T11:44:33.825Z,36.61
2018-08-24T11:46:59.773Z,37.05
2018-08-24T11:49:25.757Z,36.91
2018-08-24T11:51:51.714Z,37.38
2018-08-24T11:54:17.728Z,37.10
2018-08-24T11:56:43.636Z,37.38
2018-08-24T11:59:09.605Z,37.17
2018-08-24T12:01:35.541Z,36.98
2018-08-24T12:04:01.523Z,37.12
2018-08-24T12:06:27.474Z,37.36
2018-08-24T12:08:53.466Z,36.84
2018-08-24T12:11:19.415Z,36.80
2018-08-24T12:13:45.387Z,37.11
2018-08-24T12:16:11.337Z,36.67
2018-08-24T12:18:37.295Z,37.13
2018-08-24T12:21:03.359Z,36.88
2018-08-24T12:23:29.288Z,36.59
2018-08-24T12:25:55.248Z,36.51
2018-08-24T12:28:21.206Z,35.51
2018-08-24T12:30:47.167Z,35.99
2018-08-24T12:33:13.130Z,35.83
2018-08-24T12:35:39.122Z,35.61
2018-08-24T12:38:05.112Z,36.05
2018-08-24T12:40:31.064Z,35.48
2018-08-24T12:42:57.017Z,35.44
2018-08-24T12:45:22.961Z,34.92
2018-08-24T12:47:48.917Z,35.53
2018-08-24T12:50:14.878Z,35.77
2018-08-24T12:52:40.815Z,35.18
2018-08-24T12:55:06.762Z,35.67
2018-08-24T12:57:32.702Z,35.92
2018-08-24T12:59:58.692Z,35.19
2018-08-24T13:02:24.674Z,35.01
2018-08-24T13:04:50.640Z,35.66
2018-08-24T13:07:16.624Z,35.50
2018-08-24T13:09:42.572Z,36.36
2018-08-24T13:12:08.608Z,35.79
2018-08-24T13:14:34.575Z,36.00
2018-08-24T13:17:00.550Z,35.78
2018-08-24T13:19:26.504Z,35.51
2018-08-24T13:21:52.452Z,35.55
2018-08-24T13:24:18.409Z,36.17
2018-08-24T13:26:44.348Z,35.51
2018-08-24T13:29:10.301Z,35.82
2018-08-24T13:31:36.253Z,36.09
2018-08-24T13:34:02.216Z,35.47
2018-08-24T13:36:28.200Z,35.97
2018-08-24T13:38:54.173Z,36.39
2018-08-24T13:41:20.136Z,36.63
2018-08-24T13:43:46.174Z,35.59
2018-08-24T13:46:12.159Z,35.72
2018-08-24T13:48:38.113Z,36.38
2018-08-24T13:51:04.110Z,36.31
2018-08-24T13:53:30.069Z,35.30
2018-08-24T13:55:56.052Z,35.91
2018-08-24T13:58:21.987Z,35.78
2018-08-24T14:00:47.942Z,36.01
2018-08-24T14:03:13.892Z,35.37
2018-08-24T14:05:39.875Z,35.70
2018-08-24T14:08:05.869Z,35.68
2018-08-24T14:10:31.853Z,35.92
2018-08-24T14:12:57.851Z,36.04
2018-08-24T14:15:23.833Z,34.92
2018-08-24T14:17:49.814Z,34.63
2018-08-24T14:20:15.757Z,35.32
2018-08-24T14:22:41.716Z,35.00
2018-08-24T14:25:07.688Z,34.45
2018-08-24T14:27:33.669Z,34.32
2018-08-24T14:29:59.619Z,34.49
2018-08-24T14:32:25.565Z,34.32
2018-08-24T14:34:51.536Z,34.68
2018-08-24T14:37:17.514Z,33.77
2018-08-24T14:39:43.466Z,34.31
2018-08-24T14:42:09.431Z,34.00
2018-08-24T14:44:35.390Z,33.93
2018-08-24T14:47:01.337Z,33.86
2018-08-24T14:49:27.325Z,34.13
2018-08-24T14:51:53.312Z,33.91
2018-08-24T14:54:19.273Z,34.37
2018-08-24T14:56:45.217Z,34.44
2018-08-24T14:59:11.193Z,34.14
2018-08-24T15:01:37.160Z,33.59
2018-08-24T15:04:03.113Z,33.41
2018-08-24T15:06:29.074Z,34.06
2018-08-24T15:08:55.026Z,33.82
2018-08-24T15:11:20.977Z,33.53
2018-08-24T15:13:46.945Z,32.51
2018-08-24T15:16:12.894Z,32.41
2018-08-24T15:18:38.853Z,31.96
2018-08-24T15:21:04.794Z,31.67
2018-08-24T15:23:30.768Z,32.52
2018-08-24T15:25:56.724Z,32.54
2018-08-24T15:28:22.678Z,32.54
2018-08-24T15:30:48.631Z,31.79
2018-08-24T15:33:14.717Z,31.35
2018-08-24T15:35:40.680Z,31.28
2018-08-24T15:38:06.646Z,31.50
2018-08-24T15:40:32.595Z,31.94
2018-08-24T15:42:58.565Z,31.55
2018-08-24T15:45:24.509Z,32.40
2018-08-24T15:47:50.478Z,32.28
2018-08-24T15:50:16.444Z,31.52
2018-08-24T15:52:42.446Z,31.54
2018-08-24T15:55:08.395Z,32.68
2018-08-24T15:57:34.355Z,32.56
2018-08-24T16:00:00.330Z,32.79
2018-08-24T16:02:26.300Z,32.13
2018-08-24T16:04:52.234Z,32.02
2018-08-24T16:07:18.209Z,32.47
2018-08-24T16:09:44.165Z,32.27
2018-08-24T16:12:10.239Z,32.63
2018-08-24T16:14:36.196Z,32.03
2018-08-24T16:17:02.158Z,32.63
2018-08-24T16:19:28.102Z,32.13
2018-08-24T16:21:54.085Z,31.76
2018-08-24T16:24:20.046Z,32.84
2018-08-24T16:26:46.019Z,31.75
2018-08-24T16:29:12.013Z,31.16
2018-08-24T16:31:37.970Z,31.39
2018-08-24T16:34:03.993Z,31.36
2018-08-24T16:36:29.953Z,30.79
2018-08-24T16:38:55.947Z,31.55
2018-08-24T16:41:21.873Z,31.12
2018-08-24T16:43:47.811Z,31.80
2018-08-24T16:46:13.758Z,32.09
2018-08-24T16:48:39.735Z,32.46
2018-08-24T16:51:05.705Z,32.44
2018-08-24T16:53:31.695Z,33.28
2018-08-24T16:55:57.718Z,33.70
2018-08-24T16:58:23.740Z,33.08
2018-08-24T17:00:49.721Z,33.52
2018-08-24T17:03:15.714Z,32.92
2018-08-24T17:05:41.700Z,33.15
2018-08-24T17:08:07.670Z,32.44
2018-08-24T17:10:33.635Z,33.11
2018-08-24T17:12:59.689Z,33.43
2018-08-24T17:15:25.629Z,33.50
2018-08-24T17:17:51.598Z,33.76
2018-08-24T17:20:17.580Z,33.66
2018-08-24T17:22:43.544Z,34.97
2018-08-24T17:25:09.525Z,34.74
2018-08-24T17:27:35.515Z,34.92
2018-08-24T17:30:01.470Z,34.59
2018-08-24T17:32:27.432Z,34.37
2018-08-24T17:34:53.391Z,35.34
2018-08-24T17:37:19.374Z,34.41
2018-08-24T17:39:45.354Z,34.50
2018-08-24T17:42:11.305Z,34.27
2018-08-24T17:44:37.381Z,34.90
2018-08-24T17:47:03.429Z,34.77
2018-08-24T17:49:29.420Z,34.57
2018-08-24T17:51:55.421Z,35.00
2018-08-24T17:54:21.473Z,35.57
2018-08-24T17:56:48.355Z,34.53
2018-08-24T17:59:14.299Z,34.20
2018-08-24T18:01:40.437Z,34.52
2018-08-24T18:04:06.409Z,34.67
2018-08-24T18:06:32.379Z,35.31
2018-08-24T18:08:58.376Z,34.86
2018-08-24T18:11:24.349Z,35.33
2018-08-24T18:13:50.469Z,34.61
2018-08-24T18:16:16.474Z,34.97
2018-08-24T18:18:42.434Z,34.25
2018-08-24T18:21:09.468Z,34.38
2018-08-24T18:23:35.436Z,34.81
2018-08-24T18:26:01.468Z,34.73
2018-08-24T18:28:27.401Z,35.25
2018-08-24T18:30:53.413Z,35.10
2018-08-24T18:33:19.381Z,34.29
2018-08-24T18:35:45.585Z,35.12
2018-08-24T18:40:44.406Z,35.12
2018-08-24T18:43:10.341Z,35.30
2018-08-24T18:45:36.546Z,35.75
2018-08-24T18:48:02.503Z,35.61
2018-08-24T18:50:28.471Z,34.26
2018-08-24T18:52:54.439Z,35.18
2018-08-24T18:55:20.404Z,35.45
2018-08-24T18:57:46.395Z,34.58
2018-08-24T19:00:12.340Z,34.46
2018-08-24T19:02:38.278Z,34.88
2018-08-24T19:05:04.246Z,35.29
2018-08-24T19:07:30.234Z,34.92
2018-08-24T19:09:56.189Z,35.38
2018-08-24T19:12:22.173Z,35.06
2018-08-24T19:14:48.243Z,34.54
2018-08-24T19:17:14.170Z,35.25
2018-08-24T19:19:40.126Z,35.35
2018-08-24T19:22:06.109Z,35.32
2018-08-24T19:24:32.173Z,35.53
2018-08-24T19:26:58.056Z,35.26
2018-08-24T19:29:24.035Z,34.68
2018-08-24T19:31:50.080Z,35.83
2018-08-24T19:34:16.040Z,34.47
2018-08-24T19:36:42.032Z,35.01
2018-08-24T19:39:08.009Z,34.99
2018-08-24T19:41:33.984Z,34.72
2018-08-24T19:44:00.014Z,35.48
2018-08-24T19:46:25.909Z,34.74
2018-08-24T19:48:51.875Z,34.48
2018-08-24T19:51:18.920Z,34.91
2018-08-24T19:53:44.850Z,35.12
2018-08-24T19:56:10.833Z,34.42
2018-08-24T19:58:36.800Z,35.76
2018-08-24T20:01:02.772Z,35.22
2018-08-24T20:03:28.794Z,35.48
2018-08-24T20:05:54.738Z,34.65
2018-08-24T20:08:20.696Z,35.03
2018-08-24T20:10:46.667Z,35.88
2018-08-24T20:13:12.661Z,35.23
2018-08-24T20:15:38.642Z,35.74
2018-08-24T20:18:04.626Z,35.38
2018-08-24T20:20:31.692Z,35.23
2018-08-24T20:22:57.636Z,35.06
2018-08-24T20:25:23.590Z,35.11
2018-08-24T20:27:49.531Z,35.33
2018-08-24T20:30:15.485Z,35.84
2018-08-24T20:32:41.430Z,35.37
2018-08-24T20:35:07.374Z,35.19
2018-08-24T20:37:33.877Z,35.87
2018-08-24T20:39:59.885Z,35.29
2018-08-24T20:42:25.807Z,36.23
2018-08-24T20:44:51.765Z,36.64
2018-08-24T20:47:17.772Z,36.25
2018-08-24T20:49:49.137Z,36.26
2018-08-24T20:52:15.097Z,36.08
2018-08-24T20:54:41.053Z,36.68
2018-08-24T20:57:07.000Z,36.39
2018-08-24T20:59:32.936Z,36.36
2018-08-24T21:01:58.868Z,36.50
2018-08-24T21:04:24.878Z,35.80
2018-08-24T21:06:50.852Z,35.74
2018-08-24T21:09:16.861Z,35.44
2018-08-24T21:11:42.917Z,36.59
2018-08-24T21:14:08.882Z,35.88
2018-08-24T21:16:34.840Z,36.49
2018-08-24T21:19:00.822Z,36.57
2018-08-24T21:21:26.785Z,37.38
2018-08-24T21:23:52.751Z,37.59
2018-08-24T21:26:18.696Z,36.96
2018-08-24T21:28:44.672Z,36.48
2018-08-24T21:31:10.679Z,37.03
2018-08-24T21:33:36.629Z,38.01
2018-08-24T21:36:02.583Z,37.42
2018-08-24T21:38:28.545Z,37.26
2018-08-24T21:40:54.481Z,37.05
2018-08-24T21:43:20.454Z,37.82
2018-08-24T21:45:46.401Z,36.70
2018-08-24T21:48:12.374Z,37.03
2018-08-24T21:50:38.339Z,36.41
2018-08-24T21:53:04.297Z,36.49
2018-08-24T21:55:30.273Z,37.28
2018-08-24T21:57:56.344Z,36.73
2018-08-24T22:00:22.319Z,37.27
2018-08-24T22:02:48.240Z,37.09
2018-08-24T22:05:14.178Z,36.57
2018-08-24T22:07:40.108Z,36.98
2018-08-24T22:10:06.064Z,37.83
2018-08-24T22:12:32.007Z,37.51
2018-08-24T22:14:57.964Z,38.21
2018-08-24T22:17:23.912Z,38.03
2018-08-24T22:19:49.845Z,37.78
2018-08-24T22:22:15.796Z,37.58
2018-08-24T22:24:41.777Z,38.59
2018-08-24T22:27:07.712Z,37.31
2018-08-24T22:29:33.667Z,37.56
2018-08-24T22:31:59.596Z,37.38
2018-08-24T22:34:25.560Z,38.15
2018-08-24T22:36:51.500Z,37.34
2018-08-24T22:39:17.488Z,37.62
2018-08-24T22:41:43.416Z,38.22
2018-08-24T22:44:09.375Z,38.63
2018-08-24T22:46:35.332Z,38.84
2018-08-24T22:49:01.282Z,38.18
2018-08-24T22:51:27.230Z,38.45
2018-08-24T22:53:53.184Z,38.75
2018-08-24T22:56:19.112Z,38.71
2018-08-24T22:58:45.114Z,38.68
2018-08-24T23:01:11.046Z,38.55
2018-08-24T23:03:36.988Z,38.65
2018-08-24T23:06:02.943Z,38.74
2018-08-24T23:08:28.887Z,38.26
2018-08-24T23:10:54.832Z,38.53
2018-08-24T23:13:20.763Z,39.01
2018-08-24T23:15:46.695Z,38.08
2018-08-24T23:18:12.643Z,39.02
2018-08-24T23:20:38.612Z,38.05
2018-08-24T23:23:04.548Z,38.36
2018-08-24T23:25:30.480Z,37.95
2018-08-24T23:27:56.416Z,38.49
2018-08-24T23:30:22.379Z,38.01
2018-08-24T23:32:48.335Z,38.25
2018-08-24T23:35:14.287Z,38.47
2018-08-24T23:37:40.244Z,38.59
2018-08-24T23:40:06.176Z,38.04
2018-08-24T23:42:32.100Z,38.45
2018-08-24T23:44:58.032Z,38.77
2018-08-24T23:47:23.983Z,38.29
2018-08-24T23:49:49.937Z,38.72
2018-08-24T23:52:15.889Z,38.85
2018-08-24T23:54:41.860Z,39.10
2018-08-24T23:57:07.808Z,38.58
2018-08-24T23:59:33.751Z,38.68
